Time;durP1;ratioP1;P1;durP2;ratioP2;P2;SDS_P1;SDS_P2;PMS_P1;PMS_P2;Temp;Humidity;BMP_temperature;BMP_pressure;BME280_temperature;BME280_humidity;BME280_pressure;Samples;Min_cycle;Max_cycle;Signal;HPM_P1;HPM_P2
2022/09/03 00:03:22;;;;;;;1.65;1.00;;;;;;;17.76;56.69;101379.09;20836939;28;20378;-63
2022/09/03 00:13:53;;;;;;;1.33;1.00;;;;;;;17.66;58.23;101378.22;20845848;28;20045;-63
2022/09/03 00:24:18;;;;;;;2.97;1.23;;;;;;;17.52;57.89;101374.16;20844331;28;20041;-63
2022/09/03 00:34:51;;;;;;;4.40;1.20;;;;;;;17.47;59.37;101378.09;20849254;28;20068;-63
2022/09/03 00:45:32;;;;;;;2.13;1.00;;;;;;;17.02;60.66;101375.81;20831650;28;20037;-63
2022/09/03 00:56:14;;;;;;;3.80;1.33;;;;;;;16.71;61.94;101371.38;20842910;28;20049;-63
2022/09/03 01:07:03;;;;;;;2.20;1.17;;;;;;;16.55;63.10;101363.88;20841786;28;20171;-63
2022/09/03 01:18:10;;;;;;;5.55;1.00;;;;;;;16.42;63.96;101372.06;20847612;28;20049;-63
2022/09/03 01:28:57;;;;;;;8.35;1.20;;;;;;;16.15;64.66;101366.31;20845518;28;20059;-62
2022/09/03 01:40:13;;;;;;;4.55;1.10;;;;;;;16.08;65.38;101354.59;20854469;28;20128;-61
2022/09/03 01:50:47;;;;;;;1.63;1.00;;;;;;;15.84;65.91;101356.53;20835194;28;20045;-61
2022/09/03 02:01:28;;;;;;;1.10;1.00;;;;;;;15.76;66.23;101370.28;20836868;28;20054;-60
2022/09/03 02:12:02;;;;;;;1.70;1.17;;;;;;;15.70;66.48;101369.91;20832854;28;20076;-61
2022/09/03 02:22:24;;;;;;;1.13;1.02;;;;;;;15.55;67.32;101365.81;20852399;28;20045;-61
2022/09/03 02:32:46;;;;;;;2.40;1.30;;;;;;;15.41;67.10;101362.56;20835341;28;20528;-61
2022/09/03 02:43:14;;;;;;;2.50;1.23;;;;;;;15.25;67.77;101360.25;20875977;28;20391;-61
2022/09/03 02:53:36;;;;;;;4.18;1.20;;;;;;;15.07;67.99;101368.63;20840590;28;20048;-61
2022/09/03 03:03:58;;;;;;;1.25;1.00;;;;;;;14.95;69.50;101375.63;20833518;28;20045;-61
2022/09/03 03:14:21;;;;;;;1.88;1.13;;;;;;;14.95;69.26;101359.88;20820090;28;20060;-61
2022/09/03 03:24:42;;;;;;;2.10;1.20;;;;;;;14.93;69.74;101369.66;20841134;28;20046;-61
2022/09/03 03:35:05;;;;;;;;;;;;;;;14.88;70.05;101361.28;20844097;28;20043;-61
2022/09/03 03:45:26;;;;;;;2.75;1.35;;;;;;;14.69;70.88;101366.22;20842303;28;19947;-61
2022/09/03 03:55:55;;;;;;;;;;;;;;;14.51;71.01;101369.31;20848277;28;20041;-61
2022/09/03 04:06:18;;;;;;;2.20;1.33;;;;;;;14.46;71.67;101367.03;20839699;28;20282;-61
2022/09/03 04:16:41;;;;;;;2.95;1.50;;;;;;;14.40;71.27;101371.06;20838716;28;20049;-61
2022/09/03 04:27:03;;;;;;;2.83;1.20;;;;;;;14.33;72.02;101381.16;20848222;28;20107;-61
2022/09/03 04:37:24;;;;;;;1.80;1.30;;;;;;;14.30;72.66;101360.38;20837514;28;20731;-61
2022/09/03 04:48:10;;;;;;;3.67;1.40;;;;;;;14.26;72.52;101360.72;20842275;28;20095;-61
2022/09/03 04:58:32;;;;;;;2.88;1.23;;;;;;;14.18;72.11;101355.16;20845098;28;20056;-61
2022/09/03 05:08:54;;;;;;;;;;;;;;;14.08;73.01;101359.34;20835606;28;20050;-61
2022/09/03 05:19:16;;;;;;;4.18;1.40;;;;;;;14.31;72.87;101369.06;20842890;28;19979;-61
2022/09/03 05:29:37;;;;;;;;;;;;;;;14.22;72.57;101357.44;20835066;28;21159;-61
2022/09/03 05:39:59;;;;;;;1.57;1.40;;;;;;;14.32;72.16;101362.88;20833792;28;19920;-61
2022/09/03 05:50:20;;;;;;;4.35;1.45;;;;;;;14.65;71.00;101356.88;20840355;28;20277;-60
2022/09/03 06:00:42;;;;;;;2.83;1.65;;;;;;;14.80;71.98;101355.75;20847921;28;20059;-61
2022/09/03 06:11:08;;;;;;;;;;;;;;;15.05;71.35;101347.75;20826616;28;20612;-61
2022/09/03 06:21:29;;;;;;;8.98;1.70;;;;;;;15.00;70.70;101360.38;20851168;28;20313;-61
2022/09/03 06:31:51;;;;;;;;;;;;;;;15.34;69.60;101356.94;20808667;28;20056;-60
2022/09/03 06:42:13;;;;;;;8.70;1.60;;;;;;;15.47;70.98;101353.28;20840331;28;19924;-60
2022/09/03 06:52:34;;;;;;;2.97;1.23;;;;;;;15.98;67.56;101343.13;20830571;28;20067;-60
2022/09/03 07:02:57;;;;;;;;;;;;;;;16.18;66.98;101345.88;20812934;28;20069;-61
2022/09/03 07:13:19;;;;;;;1.33;1.00;;;;;;;16.49;65.29;101348.56;20814965;28;19927;-61
2022/09/03 07:23:42;;;;;;;3.65;1.10;;;;;;;16.82;65.36;101353.75;20821391;28;20041;-61
2022/09/03 07:34:06;;;;;;;4.28;1.27;;;;;;;17.15;63.14;101345.69;20835706;28;20037;-61
2022/09/03 07:44:30;;;;;;;1.85;1.10;;;;;;;17.44;61.29;101339.66;20822648;28;20042;-61
2022/09/03 07:54:54;;;;;;;2.25;1.02;;;;;;;17.65;60.35;101339.63;20834576;28;20055;-61
2022/09/03 08:05:19;;;;;;;2.63;1.13;;;;;;;17.90;59.62;101344.50;20822403;28;20040;-61
2022/09/03 08:15:41;;;;;;;3.90;1.42;;;;;;;18.09;60.85;101355.09;20825834;28;20045;-61
2022/09/03 08:26:03;;;;;;;9.15;1.40;;;;;;;18.46;58.20;101344.69;20814376;28;20037;-60
2022/09/03 08:36:30;;;;;;;3.33;0.90;;;;;;;18.83;57.30;101343.06;20808226;28;20379;-61
2022/09/03 08:47:06;;;;;;;7.85;1.38;;;;;;;19.29;55.40;101345.84;20815581;28;20042;-64
2022/09/03 08:57:35;;;;;;;1.65;0.90;;;;;;;19.73;54.09;101347.81;20834602;28;20435;-65
2022/09/03 09:08:31;;;;;;;2.92;1.08;;;;;;;20.24;51.81;101340.22;20827780;28;20052;-65
2022/09/03 09:19:16;;;;;;;9.30;1.20;;;;;;;20.33;52.70;101340.16;20834842;28;20056;-64
2022/09/03 09:29:38;;;;;;;4.38;0.73;;;;;;;20.83;49.60;101344.88;20846848;28;20128;-63
2022/09/03 09:39:59;;;;;;;5.10;1.10;;;;;;;20.93;48.01;101340.34;20844919;28;20041;-64
2022/09/03 09:50:22;;;;;;;5.30;0.80;;;;;;;21.20;46.50;101323.47;20839435;28;20045;-64
2022/09/03 10:01:02;;;;;;;2.30;0.90;;;;;;;21.16;48.86;101330.91;20823163;28;20081;-64
2022/09/03 10:11:27;;;;;;;3.75;1.05;;;;;;;21.42;47.41;101323.81;20849576;28;20052;-63
2022/09/03 10:22:17;;;;;;;8.18;0.88;;;;;;;21.89;44.07;101322.44;20832106;28;20073;-64
2022/09/03 10:33:00;;;;;;;;;;;;;;;21.90;43.81;101305.53;20818148;28;20387;-62
2022/09/03 10:43:57;;;;;;;4.95;0.93;;;;;;;22.27;42.34;101285.56;20829317;28;19929;-63
2022/09/03 10:54:36;;;;;;;9.23;0.88;;;;;;;22.53;41.09;101284.50;20817399;28;20052;-63
2022/09/03 11:05:15;;;;;;;1.13;1.00;;;;;;;22.58;42.85;101282.16;20825705;28;20053;-64
2022/09/03 11:15:54;;;;;;;3.80;0.90;;;;;;;22.70;41.50;101272.03;20814097;28;20707;-66
2022/09/03 11:26:20;;;;;;;1.48;0.82;;;;;;;23.16;39.44;101266.91;20830371;28;20455;-62
2022/09/03 11:36:42;;;;;;;4.85;0.75;;;;;;;22.74;40.81;101262.75;20811832;28;20051;-66
2022/09/03 11:47:42;;;;;;;2.55;0.90;;;;;;;23.37;39.49;101256.56;20831412;28;20342;-64
2022/09/03 11:58:28;;;;;;;4.25;0.75;;;;;;;23.39;41.22;101249.22;20838257;28;20056;-63
2022/09/03 12:09:12;;;;;;;3.90;0.70;;;;;;;23.30;40.70;101239.59;20827654;28;20045;-61
2022/09/03 12:19:43;;;;;;;2.90;0.90;;;;;;;23.54;41.69;101243.00;20836368;28;20532;-60
2022/09/03 12:30:17;;;;;;;3.78;0.90;;;;;;;23.38;41.47;101234.25;20826773;28;20045;-60
2022/09/03 12:40:42;;;;;;;2.50;0.90;;;;;;;23.28;41.38;101236.28;20841962;28;20053;-61
2022/09/03 12:51:24;;;;;;;2.47;0.85;;;;;;;23.84;41.35;101225.47;20853387;28;20042;-61
2022/09/03 13:02:19;;;;;;;3.50;0.80;;;;;;;23.46;40.81;101220.91;20847479;28;20045;-61
2022/09/03 13:12:49;;;;;;;2.70;0.73;;;;;;;23.44;40.67;101206.94;20836078;28;20100;-60
2022/09/03 13:23:20;;;;;;;9.07;0.80;;;;;;;23.52;41.60;101204.25;20839284;28;20124;-61
2022/09/03 13:33:53;;;;;;;3.10;0.80;;;;;;;24.03;39.69;101193.03;20840359;28;20155;-61
2022/09/03 13:44:18;;;;;;;2.55;0.80;;;;;;;23.71;40.05;101182.56;20837404;28;20050;-61
2022/09/03 13:54:47;;;;;;;8.77;1.15;;;;;;;23.49;41.29;101188.63;20841979;28;20065;-60
2022/09/03 14:05:25;;;;;;;1.52;0.80;;;;;;;23.56;40.19;101176.31;20828728;28;20111;-61
2022/09/03 14:15:54;;;;;;;2.50;0.88;;;;;;;23.93;42.87;101179.13;20836202;28;20063;-61
2022/09/03 14:26:21;;;;;;;4.38;1.02;;;;;;;23.50;40.99;101180.50;20846269;28;20411;-61
2022/09/03 14:37:16;;;;;;;0.73;0.70;;;;;;;23.90;40.65;101176.81;20834070;28;20049;-61
2022/09/03 14:48:12;;;;;;;3.00;0.70;;;;;;;23.88;39.62;101170.81;20842574;28;20037;-61
2022/09/03 14:58:55;;;;;;;6.93;0.90;;;;;;;23.77;39.06;101163.22;20833325;28;20053;-61
2022/09/03 15:09:46;;;;;;;3.13;0.93;;;;;;;23.74;40.13;101158.22;20845191;28;20068;-61
2022/09/03 15:20:26;;;;;;;7.13;0.93;;;;;;;24.45;38.05;101157.75;20841318;28;20066;-61
2022/09/03 15:31:00;;;;;;;5.90;1.02;;;;;;;23.93;39.02;101163.13;20857572;28;20041;-61
2022/09/03 15:41:33;;;;;;;2.78;0.80;;;;;;;24.13;38.61;101169.66;20870089;28;20128;-61
2022/09/03 15:52:04;;;;;;;3.97;0.90;;;;;;;24.33;38.29;101167.16;20848910;28;20505;-61
2022/09/03 16:02:57;;;;;;;4.43;0.80;;;;;;;24.01;38.75;101174.56;20829168;28;20393;-60
2022/09/03 16:13:31;;;;;;;5.53;1.15;;;;;;;24.45;38.59;101181.75;20843541;28;20155;-61
2022/09/03 16:24:37;;;;;;;3.38;0.90;;;;;;;24.33;38.42;101189.50;20859986;28;20041;-61
2022/09/03 16:35:17;;;;;;;1.67;1.00;;;;;;;23.66;38.73;101184.91;20839056;28;20049;-61
2022/09/03 16:46:17;;;;;;;2.40;1.13;;;;;;;23.59;39.43;101198.06;20831275;28;20052;-60
2022/09/03 16:56:49;;;;;;;1.38;0.80;;;;;;;23.42;40.66;101201.81;20846293;28;20055;-61
2022/09/03 17:07:34;;;;;;;0.70;0.70;;;;;;;23.42;41.94;101204.47;20843926;28;20072;-60
2022/09/03 17:18:04;;;;;;;1.75;1.00;;;;;;;23.00;41.76;101199.56;20838436;28;20068;-60
2022/09/03 17:28:41;;;;;;;4.22;1.35;;;;;;;23.03;41.59;101207.22;20840655;28;20420;-61
2022/09/03 17:39:24;;;;;;;1.85;0.90;;;;;;;22.69;43.28;101215.41;20838321;28;20364;-61
2022/09/03 17:49:52;;;;;;;1.80;0.90;;;;;;;22.46;43.21;101218.88;20838469;28;20077;-62
2022/09/03 18:00:33;;;;;;;6.25;1.00;;;;;;;22.12;44.19;101233.25;20840538;28;20057;-61
2022/09/03 18:11:26;;;;;;;7.18;1.08;;;;;;;21.83;45.30;101256.72;20828961;28;20041;-60
2022/09/03 20:11:16;;;;;;;3.22;1.10;;;;;;;20.24;47.27;101362.25;20859312;28;20409;-60
2022/09/03 20:21:49;;;;;;;3.03;1.13;;;;;;;20.09;47.42;101378.75;20847709;28;20053;-62
2022/09/03 20:32:46;;;;;;;2.25;0.95;;;;;;;20.04;47.49;101384.50;20853329;28;20107;-61
2022/09/03 20:43:34;;;;;;;1.90;0.98;;;;;;;19.75;47.52;101385.56;20834133;28;20044;-61
2022/09/03 20:54:15;;;;;;;4.00;1.27;;;;;;;19.61;48.96;101389.47;20844299;28;20046;-61
2022/09/03 21:05:02;;;;;;;4.95;1.20;;;;;;;19.41;48.56;101397.59;20855315;28;20057;-61
2022/09/03 21:15:42;;;;;;;4.20;1.00;;;;;;;19.20;48.47;101396.94;20835915;28;20526;-61
2022/09/03 21:26:20;;;;;;;3.00;1.30;;;;;;;19.01;49.91;101418.03;20844755;28;20049;-61
2022/09/03 21:36:42;;;;;;;1.65;1.20;;;;;;;18.86;50.51;101419.41;20852282;28;20746;-61
2022/09/03 21:47:10;;;;;;;2.83;1.30;;;;;;;18.86;50.59;101432.63;20842796;28;20044;-60
2022/09/03 21:58:03;;;;;;;3.75;1.30;;;;;;;18.71;51.65;101438.41;20835894;28;20638;-61
2022/09/03 22:08:47;;;;;;;2.00;1.38;;;;;;;18.45;51.73;101443.38;20829912;28;20053;-61
2022/09/03 22:19:09;;;;;;;8.10;1.27;;;;;;;18.44;51.98;101452.25;20852002;28;20049;-61
2022/09/03 22:29:49;;;;;;;3.22;1.20;;;;;;;18.35;52.40;101452.22;20853469;28;20092;-60
2022/09/03 22:40:24;;;;;;;1.63;1.10;;;;;;;18.25;53.18;101451.34;20837131;28;20037;-60
2022/09/03 22:50:57;;;;;;;4.00;1.30;;;;;;;18.06;54.03;101451.22;20841334;28;20052;-61
2022/09/03 23:01:27;;;;;;;2.72;1.15;;;;;;;17.95;53.73;101453.09;20835941;28;20049;-61
2022/09/03 23:11:56;;;;;;;4.73;1.27;;;;;;;17.78;54.07;101445.75;20835562;28;20141;-61
2022/09/03 23:22:29;;;;;;;5.32;1.20;;;;;;;17.68;55.36;101445.69;20825679;28;20053;-61
2022/09/03 23:32:56;;;;;;;2.25;1.10;;;;;;;17.45;55.80;101438.06;20832518;28;20046;-61
2022/09/03 23:43:23;;;;;;;3.25;1.20;;;;;;;17.33;56.51;101438.22;20844567;28;20044;-60
2022/09/03 23:54:15;;;;;;;2.28;1.20;;;;;;;17.24;56.79;101445.06;20840109;28;20061;-61
